Time;durP1;ratioP1;P1;durP2;ratioP2;P2;SDS_P1;SDS_P2;PMS_P1;PMS_P2;Temp;Humidity;BMP_temperature;BMP_pressure;BME280_temperature;BME280_humidity;BME280_pressure;Samples;Min_cycle;Max_cycle;Signal;HPM_P1;HPM_P2
2020/12/25 00:01:22;;;;;;;8.35;1.65;;;;;;;2.24;81.56;101290.22;5051438;28;20378;-71
2020/12/25 00:03:48;;;;;;;4.20;1.60;;;;;;;2.31;81.86;101302.06;5051319;28;20033;-70
2020/12/25 00:06:14;;;;;;;5.50;1.42;;;;;;;2.29;81.03;101296.06;5050935;28;20470;-70
2020/12/25 00:08:39;;;;;;;5.82;1.42;;;;;;;2.27;81.95;101308.47;5050252;28;20040;-70
2020/12/25 00:11:04;;;;;;;3.73;1.57;;;;;;;2.16;80.96;101303.03;5051375;28;20600;-70
2020/12/25 00:13:30;;;;;;;9.03;3.70;;;;;;;2.24;81.02;101306.03;5033512;28;20033;-70
2020/12/25 00:15:55;;;;;;;4.10;1.63;;;;;;;2.20;81.47;101312.44;5050985;28;20123;-70
2020/12/25 00:18:21;;;;;;;7.07;1.40;;;;;;;2.18;81.05;101312.53;5051065;28;20187;-71
2020/12/25 00:20:49;;;;;;;3.77;1.73;;;;;;;2.10;81.05;101315.63;5051217;28;20278;-71
2020/12/25 00:23:15;;;;;;;9.80;2.45;;;;;;;2.10;80.83;101318.25;5050016;28;20036;-70
2020/12/25 00:25:40;;;;;;;4.97;1.90;;;;;;;2.11;81.59;101319.13;5050829;28;20047;-71
2020/12/25 00:28:05;;;;;;;7.43;1.60;;;;;;;2.14;81.66;101318.09;5054755;28;20121;-71
2020/12/25 00:30:31;;;;;;;11.17;2.90;;;;;;;2.14;81.61;101315.47;5057762;28;20056;-71
2020/12/25 00:32:56;;;;;;;11.23;1.67;;;;;;;2.07;81.84;101317.63;5057779;28;20072;-70
2020/12/25 00:35:21;;;;;;;8.63;2.47;;;;;;;2.07;82.01;101315.81;5057635;28;20149;-70
2020/12/25 00:37:47;;;;;;;8.40;2.47;;;;;;;2.06;81.94;101314.16;5057437;28;20045;-70
2020/12/25 00:40:12;;;;;;;8.43;1.70;;;;;;;2.00;81.71;101311.88;5057597;28;20033;-70
2020/12/25 00:42:37;;;;;;;7.60;1.67;;;;;;;1.89;81.97;101312.50;5056659;28;20068;-70
2020/12/25 00:45:04;;;;;;;5.97;1.43;;;;;;;1.85;82.25;101320.69;5057594;28;20052;-71
2020/12/25 00:47:29;;;;;;;;;;;;;;;1.79;82.90;101318.44;5057726;28;20497;-71
2020/12/25 00:49:54;;;;;;;;;;;;;;;1.81;82.52;101319.19;5040431;28;19917;-71
2020/12/25 00:52:20;;;;;;;6.77;1.93;;;;;;;1.79;82.79;101324.53;5057328;28;20024;-71
2020/12/25 00:54:45;;;;;;;8.13;2.00;;;;;;;1.87;82.49;101326.72;5039976;28;20064;-71
2020/12/25 00:57:16;;;;;;;11.52;2.35;;;;;;;1.90;82.35;101337.09;5055995;28;20048;-70
2020/12/25 01:00:06;;;;;;;12.80;1.90;;;;;;;1.77;82.43;101333.47;5056596;28;20152;-71
2020/12/25 01:02:32;;;;;;;8.03;1.73;;;;;;;1.82;82.77;101336.69;5057459;28;20127;-70
2020/12/25 01:04:57;;;;;;;8.30;1.90;;;;;;;1.79;82.53;101342.13;5057440;28;20087;-70
2020/12/25 01:07:22;;;;;;;6.30;1.70;;;;;;;1.81;82.45;101346.38;5056935;28;20040;-70
2020/12/25 01:09:48;;;;;;;5.27;2.17;;;;;;;1.75;82.26;101353.78;5057299;28;20036;-70
2020/12/25 01:12:13;;;;;;;14.13;1.87;;;;;;;1.74;82.36;101352.94;5056481;28;20032;-71
2020/12/25 01:14:38;;;;;;;12.73;3.10;;;;;;;1.74;82.64;101357.38;5056603;28;20041;-70
2020/12/25 01:17:04;;;;;;;13.13;2.70;;;;;;;1.67;82.74;101357.72;5057241;28;20110;-71
2020/12/25 01:19:30;;;;;;;4.67;1.33;;;;;;;1.65;82.22;101356.94;5056237;28;20492;-71
2020/12/25 01:21:55;;;;;;;11.93;1.83;;;;;;;1.61;82.30;101371.22;5057384;28;20467;-70
2020/12/25 01:24:21;;;;;;;11.97;3.10;;;;;;;1.56;82.76;101373.28;5057021;28;20570;-70
2020/12/25 01:26:46;;;;;;;6.07;2.05;;;;;;;1.49;82.61;101374.56;5056935;28;20533;-71
2020/12/25 01:29:11;;;;;;;3.67;1.67;;;;;;;1.44;82.70;101374.00;5056208;28;20060;-70
2020/12/25 01:31:37;;;;;;;11.27;2.03;;;;;;;1.37;83.18;101372.66;5056163;28;20044;-71
2020/12/25 01:34:03;;;;;;;5.90;1.97;;;;;;;1.32;83.30;101367.66;5057240;28;20060;-71
2020/12/25 01:36:28;;;;;;;7.68;1.85;;;;;;;1.26;83.29;101370.63;5056861;28;20071;-70
2020/12/25 01:38:54;;;;;;;10.77;2.53;;;;;;;1.17;83.87;101372.00;5053356;28;20076;-70
2020/12/25 01:41:19;;;;;;;9.10;2.30;;;;;;;1.11;83.55;101377.59;5052841;28;20029;-70
2020/12/25 01:43:44;;;;;;;8.80;1.60;;;;;;;1.09;83.95;101378.63;5053992;28;20115;-71
2020/12/25 01:46:11;;;;;;;9.53;2.27;;;;;;;1.07;83.74;101378.69;5053623;28;20485;-71
2020/12/25 01:48:36;;;;;;;11.25;2.10;;;;;;;1.02;84.22;101378.13;5053900;28;20052;-71
2020/12/25 01:51:02;;;;;;;5.78;1.60;;;;;;;0.98;84.06;101392.34;5053800;28;20041;-70
2020/12/25 01:53:28;;;;;;;6.53;1.30;;;;;;;0.94;84.34;101378.56;5053616;28;20059;-70
2020/12/25 01:55:55;;;;;;;14.07;2.00;;;;;;;0.96;84.29;101391.59;5053407;28;20467;-70
2020/12/25 01:58:20;;;;;;;;;;;;;;;0.89;84.38;101387.59;5053961;28;20095;-70
2020/12/25 02:00:46;;;;;;;5.47;1.17;;;;;;;0.80;84.41;101381.94;5053707;28;20334;-70
2020/12/25 02:03:14;;;;;;;6.50;1.55;;;;;;;0.72;84.79;101392.00;5052562;28;20061;-71
2020/12/25 02:05:40;;;;;;;7.95;2.75;;;;;;;0.73;84.99;101388.47;5053280;28;20039;-70
2020/12/25 02:08:06;;;;;;;8.80;1.67;;;;;;;0.73;85.00;101393.72;5053236;28;20044;-71
2020/12/25 02:10:33;;;;;;;8.13;1.50;;;;;;;0.70;85.27;101395.66;5053592;28;20472;-70
2020/12/25 02:12:59;;;;;;;7.20;2.45;;;;;;;0.67;85.21;101398.47;5053383;28;20099;-70
2020/12/25 02:15:24;;;;;;;10.30;2.35;;;;;;;0.61;85.36;101389.13;5053187;28;20447;-71
2020/12/25 02:17:50;;;;;;;3.40;1.33;;;;;;;0.59;85.32;101401.50;5053068;28;20032;-70
2020/12/25 02:20:15;;;;;;;8.37;1.63;;;;;;;0.52;85.41;101411.50;5053216;28;20438;-70
2020/12/25 02:22:41;;;;;;;8.87;1.63;;;;;;;0.45;85.48;101415.38;5052501;28;20431;-71
2020/12/25 02:25:07;;;;;;;9.82;1.90;;;;;;;0.50;85.86;101418.59;5052220;28;20103;-71
2020/12/25 02:27:32;;;;;;;12.63;1.73;;;;;;;0.51;86.10;101432.56;5052865;28;20127;-70
2020/12/25 02:29:58;;;;;;;7.37;1.63;;;;;;;0.43;85.97;101421.63;5052020;28;20157;-70
2020/12/25 02:32:23;;;;;;;13.57;1.52;;;;;;;0.26;86.63;101423.38;5053002;28;20036;-70
2020/12/25 02:34:49;;;;;;;15.37;3.73;;;;;;;0.26;86.69;101426.00;5052021;28;20056;-70
2020/12/25 02:37:14;;;;;;;11.60;2.30;;;;;;;0.26;87.55;101426.00;5051596;28;20040;-70
2020/12/25 02:39:39;;;;;;;11.40;2.53;;;;;;;0.22;87.45;101429.69;5051970;28;20182;-70
2020/12/25 02:42:04;;;;;;;8.20;2.10;;;;;;;0.17;87.51;101431.72;5052816;28;20033;-71
2020/12/25 02:44:30;;;;;;;5.00;1.93;;;;;;;0.15;87.98;101428.31;5051942;28;20171;-70
2020/12/25 02:46:55;;;;;;;6.60;2.70;;;;;;;0.15;88.04;101434.41;5052572;28;20064;-70
2020/12/25 02:49:20;;;;;;;10.03;2.60;;;;;;;0.04;87.86;101436.72;5051799;28;20094;-71
2020/12/25 02:51:49;;;;;;;8.07;2.00;;;;;;;-0.01;87.90;101434.34;5051367;28;20107;-71
2020/12/25 02:54:14;;;;;;;8.25;2.83;;;;;;;-0.05;88.14;101443.31;5034999;28;20048;-71
2020/12/25 02:56:39;;;;;;;12.03;2.27;;;;;;;-0.09;88.53;101436.53;5052319;28;20370;-71
2020/12/25 02:59:05;;;;;;;12.10;2.50;;;;;;;-0.12;88.24;101438.44;5052501;28;20327;-71
2020/12/25 03:01:30;;;;;;;11.57;3.53;;;;;;;-0.17;88.49;101437.81;5052545;28;20410;-70
2020/12/25 03:03:55;;;;;;;13.83;2.10;;;;;;;-0.19;88.60;101440.50;5052092;28;20634;-70
2020/12/25 03:06:21;;;;;;;4.73;2.20;;;;;;;-0.22;88.72;101438.03;5051028;28;20044;-70
2020/12/25 03:08:46;;;;;;;8.90;2.47;;;;;;;-0.20;88.60;101443.22;5052228;28;20048;-70
2020/12/25 03:11:11;;;;;;;10.13;3.00;;;;;;;-0.19;88.32;101447.53;5051434;28;20056;-70
2020/12/25 03:13:37;;;;;;;6.50;2.30;;;;;;;-0.21;88.08;101450.25;5052201;28;20037;-70
2020/12/25 03:16:04;;;;;;;8.23;2.57;;;;;;;-0.26;88.34;101452.25;5051965;28;20037;-70
2020/12/25 03:18:29;;;;;;;5.90;2.45;;;;;;;-0.22;87.91;101440.66;5051245;28;20052;-70
2020/12/25 03:20:54;;;;;;;8.33;2.30;;;;;;;-0.34;88.10;101436.03;5051131;28;20543;-70
2020/12/25 03:23:20;;;;;;;17.57;3.63;;;;;;;-0.41;88.48;101435.47;5052178;28;20031;-70
2020/12/25 03:25:45;;;;;;;13.17;3.57;;;;;;;-0.48;88.45;101436.72;5051685;28;20445;-70
2020/12/25 03:28:10;;;;;;;4.47;1.87;;;;;;;-0.53;88.79;101434.31;5052007;28;20094;-70
2020/12/25 03:30:36;;;;;;;11.17;1.80;;;;;;;-0.54;89.05;101440.50;5050867;28;20125;-70
2020/12/25 03:33:01;;;;;;;10.57;2.60;;;;;;;-0.54;88.94;101447.47;5051853;28;20061;-71
2020/12/25 03:35:26;;;;;;;10.13;3.13;;;;;;;-0.58;89.14;101443.34;5050853;28;20393;-70
2020/12/25 03:37:52;;;;;;;7.30;1.80;;;;;;;-0.56;88.64;101439.72;5051429;28;20504;-70
2020/12/25 03:40:17;;;;;;;7.10;2.27;;;;;;;-0.57;88.82;101451.09;5051766;28;20025;-71
2020/12/25 03:42:43;;;;;;;12.23;2.90;;;;;;;-0.53;88.68;101450.03;5050630;28;20048;-70
2020/12/25 03:45:08;;;;;;;11.07;2.88;;;;;;;-0.61;88.33;101452.16;5051743;28;20043;-70
2020/12/25 03:47:34;;;;;;;8.35;2.60;;;;;;;-0.63;88.59;101464.53;5050240;28;20044;-70
2020/12/25 03:50:00;;;;;;;7.63;2.93;;;;;;;-0.67;88.83;101458.56;5050355;28;20048;-70
2020/12/25 03:52:25;;;;;;;6.70;1.70;;;;;;;-0.57;88.55;101456.34;5051536;28;20066;-70
2020/12/25 03:54:51;;;;;;;5.03;2.00;;;;;;;-0.58;88.29;101451.19;5051250;28;20043;-70
2020/12/25 03:57:16;;;;;;;5.77;1.83;;;;;;;-0.63;87.97;101459.28;5050458;28;20052;-70
2020/12/25 03:59:42;;;;;;;4.77;1.53;;;;;;;-0.65;88.15;101461.13;5051409;28;20124;-70
2020/12/25 04:02:07;;;;;;;10.15;3.35;;;;;;;-0.63;88.21;101467.16;5050794;28;20043;-70
2020/12/25 04:04:32;;;;;;;10.13;2.13;;;;;;;-0.64;88.29;101468.06;5051274;28;20537;-70
2020/12/25 04:06:58;;;;;;;10.60;1.80;;;;;;;-0.70;88.43;101466.59;5050938;28;20047;-70
2020/12/25 04:09:23;;;;;;;13.77;3.03;;;;;;;-0.76;88.45;101464.25;5051210;28;20284;-70
2020/12/25 04:11:49;;;;;;;15.73;2.00;;;;;;;-0.79;88.22;101460.94;5051145;28;20079;-70
2020/12/25 04:14:16;;;;;;;5.78;1.58;;;;;;;-0.80;88.59;101459.22;5051285;28;20033;-70
2020/12/25 04:16:42;;;;;;;10.25;3.72;;;;;;;-0.79;88.42;101464.41;5049839;28;20576;-70
2020/12/25 04:19:07;;;;;;;11.45;1.95;;;;;;;-0.78;88.32;101465.25;5051193;28;20049;-71
2020/12/25 04:21:32;;;;;;;9.57;2.00;;;;;;;-0.83;88.25;101477.72;5051065;28;20059;-70
2020/12/25 04:23:58;;;;;;;8.93;2.60;;;;;;;-0.85;88.22;101472.53;5051219;28;20080;-71
2020/12/25 04:26:23;;;;;;;8.87;1.83;;;;;;;-0.96;88.11;101480.91;5050875;28;20064;-70
2020/12/25 04:28:48;;;;;;;10.10;2.57;;;;;;;-0.81;88.02;101473.25;5051041;28;20120;-71
2020/12/25 04:31:14;;;;;;;9.10;2.13;;;;;;;-0.90;87.70;101472.75;5051138;28;20298;-71
2020/12/25 04:33:39;;;;;;;8.50;2.58;;;;;;;-1.04;87.88;101482.19;5050899;28;20037;-71
2020/12/25 04:36:04;;;;;;;8.17;1.80;;;;;;;-1.08;88.13;101487.56;5049699;28;20045;-70
2020/12/25 04:38:30;;;;;;;15.63;4.17;;;;;;;-1.15;88.13;101485.28;5050017;28;20033;-70
2020/12/25 04:40:55;;;;;;;6.50;1.80;;;;;;;-1.15;88.56;101487.91;5050044;28;20045;-70
2020/12/25 04:43:25;;;;;;;9.00;3.03;;;;;;;-0.98;88.28;101487.16;5050905;28;20494;-70
2020/12/25 04:45:52;;;;;;;14.40;2.72;;;;;;;-1.00;88.05;101484.59;5050633;28;20037;-70
2020/12/25 04:48:17;;;;;;;6.57;2.00;;;;;;;-1.09;88.01;101482.41;5050822;28;20119;-70
2020/12/25 04:50:43;;;;;;;6.28;1.60;;;;;;;-1.16;87.92;101488.84;5049841;28;20611;-70
2020/12/25 04:53:08;;;;;;;9.53;1.83;;;;;;;-1.17;88.25;101495.84;5049883;28;20486;-70
2020/12/25 04:55:34;;;;;;;4.95;1.67;;;;;;;-1.19;88.33;101496.84;5049672;28;20478;-70
2020/12/25 04:57:59;;;;;;;5.33;1.60;;;;;;;-1.07;87.99;101491.03;5050745;28;20041;-71
2020/12/25 05:00:27;;;;;;;7.27;2.10;;;;;;;-1.10;87.75;101499.03;5049722;28;20051;-70
2020/12/25 05:02:52;;;;;;;7.30;1.77;;;;;;;-1.13;87.71;101496.53;5049719;28;20767;-70
2020/12/25 05:05:24;;;;;;;9.17;1.83;;;;;;;-1.07;87.91;101498.91;5050644;28;20033;-71
2020/12/25 05:07:50;;;;;;;6.93;1.98;;;;;;;-1.15;87.77;101493.13;5049604;28;20033;-71
2020/12/25 05:10:16;;;;;;;8.15;1.45;;;;;;;-1.23;88.23;101505.75;5050617;28;20477;-71
2020/12/25 05:12:45;;;;;;;8.77;1.93;;;;;;;-1.18;88.10;101511.63;5049788;28;20037;-71
2020/12/25 05:15:11;;;;;;;7.80;1.63;;;;;;;-1.17;88.12;101508.94;5054424;28;20039;-71
2020/12/25 05:17:37;;;;;;;10.20;1.70;;;;;;;-1.10;87.71;101506.88;5053955;28;20370;-71
2020/12/25 05:20:03;;;;;;;;;;;;;;;-1.12;87.76;101514.84;5053935;28;20739;-71
2020/12/25 05:22:29;;;;;;;11.20;3.15;;;;;;;-1.12;87.97;101511.38;5053464;28;19916;-71
2020/12/25 05:24:59;;;;;;;4.90;1.20;;;;;;;-1.11;87.63;101513.91;5053374;28;20040;-71
2020/12/25 05:27:26;;;;;;;4.15;1.40;;;;;;;-1.10;87.80;101510.38;5053126;28;20047;-71
2020/12/25 05:29:56;;;;;;;18.52;2.88;;;;;;;-1.07;87.79;101514.63;5054210;28;20114;-71
2020/12/25 05:32:26;;;;;;;5.40;1.52;;;;;;;-1.06;87.78;101516.31;5053066;28;20456;-71
2020/12/25 05:34:54;;;;;;;6.43;1.95;;;;;;;-1.11;88.02;101513.06;5054082;28;20515;-71
2020/12/25 05:37:19;;;;;;;10.75;2.33;;;;;;;-1.00;87.66;101510.81;5053709;28;20039;-71
2020/12/25 05:39:44;;;;;;;15.90;3.60;;;;;;;-1.03;87.55;101517.94;5052993;28;20041;-71
2020/12/25 05:42:10;;;;;;;5.80;1.93;;;;;;;-1.06;87.59;101527.63;5053044;28;20124;-71
2020/12/25 05:44:46;;;;;;;5.10;1.60;;;;;;;-1.07;87.71;101525.09;5053833;28;20136;-71
2020/12/25 05:47:16;;;;;;;8.85;1.80;;;;;;;-0.97;87.73;101528.16;5036031;28;20625;-71
2020/12/25 05:49:41;;;;;;;8.80;1.77;;;;;;;-0.97;87.84;101533.41;5053672;28;20102;-71
2020/12/25 05:52:07;;;;;;;6.05;1.67;;;;;;;-0.94;87.87;101533.25;5053712;28;20049;-71
2020/12/25 05:54:34;;;;;;;9.27;2.70;;;;;;;-1.01;87.51;101537.91;5052717;28;20037;-71
2020/12/25 05:56:59;;;;;;;5.68;2.58;;;;;;;-0.97;87.67;101543.91;5053452;28;20279;-71
2020/12/25 05:59:31;;;;;;;22.58;2.75;;;;;;;-0.92;87.55;101539.28;5052730;28;20036;-71
2020/12/25 06:01:58;;;;;;;19.60;3.70;;;;;;;-0.89;87.22;101545.25;5053527;28;20061;-71
2020/12/25 06:04:28;;;;;;;3.72;1.38;;;;;;;-0.85;86.81;101552.03;5053568;28;20067;-71
2020/12/25 06:06:54;;;;;;;8.10;1.65;;;;;;;-0.88;86.95;101548.72;5053028;28;20033;-71
2020/12/25 06:09:27;;;;;;;22.48;2.95;;;;;;;-0.97;86.84;101544.72;5053520;28;20037;-71
2020/12/25 06:11:52;;;;;;;6.82;1.48;;;;;;;-1.01;86.90;101545.78;5053179;28;20045;-71
2020/12/25 06:14:18;;;;;;;5.67;1.77;;;;;;;-1.04;87.16;101548.56;5052529;28;20101;-71
2020/12/25 06:16:53;;;;;;;6.03;2.08;;;;;;;-0.99;86.94;101553.59;5053113;28;20294;-71
2020/12/25 06:19:42;;;;;;;5.20;1.25;;;;;;;-0.99;87.08;101553.59;5053310;28;20450;-71
2020/12/25 06:22:21;;;;;;;6.55;2.80;;;;;;;-0.97;87.29;101562.25;5053318;28;20136;-71
2020/12/25 06:24:47;;;;;;;6.50;1.58;;;;;;;-0.92;87.20;101565.50;5051445;28;20044;-71
2020/12/25 06:27:14;;;;;;;8.20;2.55;;;;;;;-0.96;87.21;101575.28;5052975;28;20098;-71
2020/12/25 06:29:42;;;;;;;7.47;2.05;;;;;;;-0.95;86.93;101576.97;5052999;28;20516;-71
2020/12/25 06:32:12;;;;;;;8.38;1.48;;;;;;;-0.97;86.98;101578.81;5053023;28;20041;-71
2020/12/25 06:34:48;;;;;;;6.45;2.20;;;;;;;-0.98;86.94;101577.13;5035240;28;20037;-71
2020/12/25 06:37:15;;;;;;;9.65;2.05;;;;;;;-0.98;87.00;101589.38;5051652;28;20052;-71
2020/12/25 06:39:48;;;;;;;9.25;2.75;;;;;;;-0.94;87.01;101572.59;5051877;28;20459;-71
2020/12/25 06:42:19;;;;;;;8.80;1.70;;;;;;;-0.95;86.96;101586.63;5052864;28;20358;-71
2020/12/25 06:44:48;;;;;;;7.43;2.83;;;;;;;-0.95;87.17;101589.25;5051700;28;20517;-70
2020/12/25 06:47:26;;;;;;;4.32;1.90;;;;;;;-0.89;87.04;101597.69;5052281;28;20032;-71
2020/12/25 06:49:52;;;;;;;5.75;2.05;;;;;;;-0.85;87.03;101599.22;5051699;28;20052;-71
2020/12/25 06:52:54;;;;;;;5.97;2.30;;;;;;;-0.84;86.92;101605.34;5051585;28;20041;-71
2020/12/25 06:55:23;;;;;;;4.55;1.50;;;;;;;-0.79;86.91;101605.16;5032372;28;20148;-71
2020/12/25 06:57:56;;;;;;;15.52;3.22;;;;;;;-0.78;86.78;101614.72;5051342;28;20029;-71
2020/12/25 07:00:24;;;;;;;7.57;1.85;;;;;;;-0.67;86.32;101621.16;5050706;28;20378;-71
2020/12/25 07:02:50;;;;;;;8.15;1.60;;;;;;;-0.74;86.01;101616.28;5051778;28;20068;-71
2020/12/25 07:05:15;;;;;;;6.60;1.87;;;;;;;-0.73;86.22;101612.72;5051184;28;20091;-71
2020/12/25 07:07:40;;;;;;;14.90;2.17;;;;;;;-0.74;86.08;101621.53;5050139;28;20072;-71
2020/12/25 07:10:10;;;;;;;4.97;1.50;;;;;;;-0.80;86.33;101630.50;5050617;28;20041;-71
2020/12/25 07:12:36;;;;;;;11.32;1.98;;;;;;;-0.88;86.62;101628.22;5049292;28;20321;-71
2020/12/25 07:15:04;;;;;;;9.35;1.90;;;;;;;-0.83;86.32;101635.88;5050914;28;20045;-70
2020/12/25 07:17:29;;;;;;;8.57;2.58;;;;;;;-0.90;86.33;101635.28;5051660;28;20052;-71
2020/12/25 07:19:54;;;;;;;9.23;1.80;;;;;;;-0.90;86.52;101634.44;5050980;28;20033;-71
2020/12/25 07:22:21;;;;;;;8.27;2.10;;;;;;;-0.91;86.40;101627.53;5051041;28;20384;-71
2020/12/25 07:24:46;;;;;;;;;;;;;;;-0.97;86.32;101640.88;5050998;28;20101;-71
2020/12/25 07:27:14;;;;;;;6.88;1.83;;;;;;;-1.07;86.71;101643.06;5051560;28;19925;-71
2020/12/25 07:29:40;;;;;;;5.85;1.67;;;;;;;-1.05;87.05;101643.84;5051665;28;20033;-72
2020/12/25 07:32:08;;;;;;;6.63;1.58;;;;;;;-1.07;87.03;101635.19;5051493;28;20142;-73
2020/12/25 07:34:33;;;;;;;5.80;2.35;;;;;;;-1.07;87.08;101643.91;5050707;28;20474;-71
2020/12/25 07:36:59;;;;;;;4.00;1.50;;;;;;;-1.07;87.01;101645.66;5049528;28;20045;-71
2020/12/25 07:39:26;;;;;;;4.90;1.37;;;;;;;-1.00;87.17;101654.13;5051268;28;20120;-71
2020/12/25 07:41:52;;;;;;;4.50;1.70;;;;;;;-1.01;87.26;101668.97;5050294;28;20602;-71
2020/12/25 07:44:18;;;;;;;5.25;1.80;;;;;;;-1.03;87.30;101665.59;5051601;28;20047;-71
2020/12/25 07:46:43;;;;;;;;;;;;;;;-1.01;87.24;101658.50;5049949;28;20116;-70
2020/12/25 07:49:09;;;;;;;5.97;2.10;;;;;;;-1.04;87.26;101661.25;5049821;28;20008;-71
2020/12/25 07:51:34;;;;;;;7.03;1.85;;;;;;;-1.10;87.23;101662.38;5049607;28;20043;-71
2020/12/25 07:54:02;;;;;;;7.47;2.13;;;;;;;-1.19;87.54;101662.78;5049616;28;20037;-70
2020/12/25 07:56:33;;;;;;;6.60;1.55;;;;;;;-1.13;87.54;101670.34;5031838;28;20127;-71
2020/12/25 07:59:00;;;;;;;7.35;1.75;;;;;;;-1.11;87.31;101665.91;5048659;28;20458;-71
2020/12/25 08:01:27;;;;;;;6.50;1.75;;;;;;;-1.06;87.45;101674.41;5050224;28;20355;-70
2020/12/25 08:03:56;;;;;;;16.40;3.60;;;;;;;-1.14;87.06;101678.31;5050144;28;20029;-71
2020/12/25 08:06:22;;;;;;;3.47;2.25;;;;;;;-1.16;87.43;101690.63;5050753;28;20148;-70
2020/12/25 08:08:51;;;;;;;7.10;3.33;;;;;;;-1.15;87.47;101687.06;5051053;28;20370;-70
2020/12/25 08:11:18;;;;;;;10.73;2.05;;;;;;;-1.21;87.42;101692.56;5051059;28;20048;-71
2020/12/25 08:13:47;;;;;;;7.93;2.40;;;;;;;-1.14;87.76;101694.03;5050982;28;20432;-70
2020/12/25 08:16:13;;;;;;;8.15;1.90;;;;;;;-1.15;87.70;101698.44;5050828;28;20029;-71
2020/12/25 08:18:38;;;;;;;8.40;3.08;;;;;;;-1.18;87.78;101697.69;5051095;28;20137;-71
2020/12/25 08:21:04;;;;;;;10.70;1.90;;;;;;;-1.16;87.87;101708.97;5033128;28;20102;-72
2020/12/25 08:23:33;;;;;;;4.80;1.92;;;;;;;-1.07;88.02;101709.41;5050985;28;20114;-72
2020/12/25 08:25:59;;;;;;;3.85;1.63;;;;;;;-1.01;88.33;101696.97;5049585;28;20040;-72
2020/12/25 08:28:24;;;;;;;9.73;2.45;;;;;;;-0.86;88.24;101706.81;5050989;28;20099;-71
2020/12/25 08:30:50;;;;;;;5.93;1.90;;;;;;;-0.80;87.90;101703.91;5050853;28;20044;-71
2020/12/25 08:33:26;;;;;;;5.82;2.75;;;;;;;-0.65;87.71;101710.28;5049929;28;20041;-71
2020/12/25 08:35:52;;;;;;;9.85;2.08;;;;;;;-0.59;87.10;101710.00;5050622;28;20048;-71
2020/12/25 08:38:18;;;;;;;12.90;3.25;;;;;;;-0.37;86.29;101706.47;5050821;28;20040;-71
2020/12/25 08:40:45;;;;;;;11.63;3.50;;;;;;;-0.30;86.03;101700.84;5050774;28;20051;-71
2020/12/25 08:43:16;;;;;;;8.65;3.30;;;;;;;0.45;85.63;101699.13;5049749;28;20102;-71
2020/12/25 08:45:54;;;;;;;9.88;2.80;;;;;;;1.62;82.83;101699.34;5050770;28;20064;-71
2020/12/25 08:48:20;;;;;;;7.82;2.30;;;;;;;2.46;79.75;101707.03;5050759;28;20367;-71
2020/12/25 08:50:46;;;;;;;9.38;2.22;;;;;;;2.91;75.10;101704.50;5037345;28;20045;-71
2020/12/25 08:53:17;;;;;;;6.40;2.15;;;;;;;3.46;72.98;101714.38;5053106;28;20489;-71
2020/12/25 08:55:48;;;;;;;7.10;2.22;;;;;;;3.75;68.89;101722.34;5054470;28;20032;-71
2020/12/25 08:58:18;;;;;;;10.52;2.42;;;;;;;4.03;67.63;101721.47;5053566;28;20064;-71
2020/12/25 09:01:00;;;;;;;11.30;2.42;;;;;;;3.95;67.49;101716.66;5053461;28;20537;-71
2020/12/25 09:03:42;;;;;;;15.05;2.20;;;;;;;4.46;65.64;101718.75;5054559;28;20032;-71
2020/12/25 09:06:09;;;;;;;8.25;2.17;;;;;;;5.17;65.51;101728.16;5053590;28;20404;-71
2020/12/25 09:08:34;;;;;;;6.65;2.47;;;;;;;5.63;63.24;101730.31;5053526;28;20361;-71
2020/12/25 09:11:00;;;;;;;2.50;1.20;;;;;;;5.53;63.36;101728.41;5052990;28;20036;-72
2020/12/25 09:13:26;;;;;;;4.53;2.23;;;;;;;4.95;64.42;101744.63;5054376;28;20043;-72
2020/12/25 09:15:52;;;;;;;4.30;1.30;;;;;;;3.63;66.01;101753.00;5053927;28;20091;-71
2020/12/25 09:18:17;;;;;;;2.93;1.60;;;;;;;3.00;72.72;101756.72;5054304;28;20060;-71
2020/12/25 09:20:43;;;;;;;9.93;2.73;;;;;;;3.01;72.75;101754.94;5036717;28;20283;-71
2020/12/25 09:23:08;;;;;;;9.90;3.70;;;;;;;3.86;77.48;101756.00;5053114;28;20126;-71
2020/12/25 09:25:33;;;;;;;6.23;2.60;;;;;;;4.39;70.21;101751.81;5052954;28;20043;-71
2020/12/25 09:27:59;;;;;;;6.77;1.93;;;;;;;4.65;64.57;101750.13;5052834;28;20124;-71
2020/12/25 09:30:24;;;;;;;5.03;2.40;;;;;;;5.30;63.58;101749.38;5053153;28;20041;-71
2020/12/25 09:32:49;;;;;;;5.07;2.07;;;;;;;5.44;61.36;101756.38;5053646;28;20047;-71
2020/12/25 09:35:15;;;;;;;23.30;2.00;;;;;;;5.60;60.33;101756.19;5052954;28;20044;-67
2020/12/25 09:37:40;;;;;;;4.33;2.37;;;;;;;6.15;59.58;101767.41;5052589;28;20033;-67
2020/12/25 09:40:05;;;;;;;4.30;2.00;;;;;;;5.91;59.26;101770.78;5052505;28;20033;-67
2020/12/25 09:42:31;;;;;;;8.43;3.17;;;;;;;5.71;60.40;101770.38;5053804;28;20048;-67
2020/12/25 09:44:56;;;;;;;3.60;2.00;;;;;;;6.22;59.17;101766.00;5052623;28;20110;-67
2020/12/25 09:47:21;;;;;;;5.27;2.13;;;;;;;6.52;58.62;101774.41;5053503;28;20076;-66
2020/12/25 09:49:47;;;;;;;9.70;1.70;;;;;;;6.40;58.99;101771.81;5053768;28;20091;-66
2020/12/25 09:52:12;;;;;;;5.40;2.37;;;;;;;6.74;56.74;101768.41;5052401;28;20041;-66
2020/12/25 09:54:38;;;;;;;4.97;1.97;;;;;;;6.85;56.49;101782.69;5053461;28;20037;-66
2020/12/25 09:57:04;;;;;;;6.47;2.50;;;;;;;7.50;55.73;101779.56;5052973;28;20040;-66
2020/12/25 09:59:29;;;;;;;3.63;1.60;;;;;;;7.65;55.14;101782.00;5035050;28;20041;-67
2020/12/25 10:01:55;;;;;;;7.43;2.00;;;;;;;7.40;54.94;101783.88;5052136;28;20347;-66
2020/12/25 10:04:20;;;;;;;3.88;1.23;;;;;;;6.81;55.73;101784.69;5035583;28;20131;-67
2020/12/25 10:06:45;;;;;;;9.53;2.50;;;;;;;5.95;57.74;101779.41;5033883;28;20041;-66
2020/12/25 10:09:11;;;;;;;5.13;2.00;;;;;;;5.82;58.07;101782.88;5050209;28;20590;-66
2020/12/25 10:11:36;;;;;;;8.07;2.17;;;;;;;6.32;57.66;101775.88;5049782;28;20032;-68
2020/12/25 10:14:02;;;;;;;5.43;1.70;;;;;;;6.65;55.07;101771.72;5049835;28;20351;-68
2020/12/25 10:16:27;;;;;;;2.55;1.35;;;;;;;6.55;55.60;101781.31;5050023;28;20032;-68
2020/12/25 10:18:53;;;;;;;10.50;1.70;;;;;;;6.28;57.29;101777.03;5050017;28;20092;-68
2020/12/25 10:21:18;;;;;;;7.63;1.57;;;;;;;6.03;57.09;101785.03;5050296;28;20296;-68
2020/12/25 10:23:43;;;;;;;3.30;1.13;;;;;;;5.65;58.69;101781.41;5051466;28;20344;-68
2020/12/25 10:26:12;;;;;;;9.17;2.97;;;;;;;6.13;58.44;101789.59;5050189;28;20075;-68
2020/12/25 10:28:38;;;;;;;11.93;2.15;;;;;;;6.01;58.62;101790.41;5051984;28;20045;-68
2020/12/25 10:31:04;;;;;;;3.90;1.45;;;;;;;5.96;58.99;101794.38;5052775;28;20045;-68
2020/12/25 10:33:29;;;;;;;6.25;2.17;;;;;;;5.96;58.61;101794.38;5051818;28;20041;-68
2020/12/25 10:35:54;;;;;;;5.30;1.97;;;;;;;5.81;58.18;101791.78;5051649;28;20040;-68
2020/12/25 10:38:20;;;;;;;13.10;2.03;;;;;;;6.16;57.73;101785.88;5052626;28;20040;-68
2020/12/25 10:40:45;;;;;;;5.40;2.60;;;;;;;6.24;57.00;101786.16;5052337;28;20114;-68
2020/12/25 10:43:10;;;;;;;6.07;1.57;;;;;;;5.66;58.56;101777.78;5052769;28;20028;-68
2020/12/25 10:45:36;;;;;;;4.97;1.60;;;;;;;5.41;59.53;101777.78;5034904;28;20374;-68
2020/12/25 10:48:01;;;;;;;5.40;1.73;;;;;;;6.13;57.31;101786.06;5052219;28;20045;-68
2020/12/25 10:50:26;;;;;;;7.33;1.70;;;;;;;6.29;56.19;101768.09;5051698;28;20047;-68
2020/12/25 10:52:54;;;;;;;3.97;1.33;;;;;;;6.09;56.98;101784.59;5052348;28;20033;-68
2020/12/25 10:55:20;;;;;;;8.88;1.85;;;;;;;5.58;57.60;101779.28;5052030;28;20033;-68
2020/12/25 10:57:45;;;;;;;6.30;1.63;;;;;;;5.86;57.17;101786.19;5051154;28;20468;-68
2020/12/25 11:00:10;;;;;;;4.97;1.50;;;;;;;6.01;56.69;101781.63;5051171;28;20033;-68
2020/12/25 11:02:36;;;;;;;5.13;2.00;;;;;;;6.30;56.07;101775.13;5051673;28;20498;-68
2020/12/25 11:05:01;;;;;;;3.00;1.43;;;;;;;6.18;56.27;101776.00;5051820;28;20462;-68
2020/12/25 11:07:26;;;;;;;4.40;2.20;;;;;;;6.22;56.70;101772.16;5034334;28;20037;-68
2020/12/25 11:09:52;;;;;;;6.03;1.37;;;;;;;6.71;54.90;101773.09;5050773;28;20033;-68
2020/12/25 11:12:17;;;;;;;3.53;2.13;;;;;;;6.25;55.58;101774.59;5050922;28;20040;-67
2020/12/25 11:14:42;;;;;;;6.40;1.33;;;;;;;5.75;57.71;101771.00;5052001;28;20378;-67
2020/12/25 11:17:08;;;;;;;2.57;1.77;;;;;;;6.10;57.11;101762.44;5050965;28;20366;-67
2020/12/25 11:19:33;;;;;;;5.07;1.43;;;;;;;5.89;57.88;101770.88;5051811;28;20572;-67
2020/12/25 11:21:58;;;;;;;9.13;1.87;;;;;;;6.31;57.12;101763.53;5050981;28;20048;-67
2020/12/25 11:24:24;;;;;;;5.77;1.90;;;;;;;6.26;58.07;101767.50;5051587;28;20044;-67
2020/12/25 11:26:49;;;;;;;7.37;1.47;;;;;;;6.56;55.37;101756.47;5051603;28;20044;-67